Time;durP1;ratioP1;P1;durP2;ratioP2;P2;SDS_P1;SDS_P2;PMS_P1;PMS_P2;Temp;Humidity;BMP_temperature;BMP_pressure;BME280_temperature;BME280_humidity;BME280_pressure;Samples;Min_cycle;Max_cycle;Signal;HPM_P1;HPM_P2
2023/09/19 00:01:19;;;;;;;12.27;2.67;;;;;;;14.94;100.00;100692.22;4895491;29;20088;-70
2023/09/19 00:03:45;;;;;;;8.48;2.38;;;;;;;14.95;100.00;100697.34;4896371;29;20060;-70
2023/09/19 00:06:13;;;;;;;8.25;2.15;;;;;;;14.93;100.00;100702.13;4896465;29;20037;-70
2023/09/19 00:08:38;;;;;;;11.70;4.28;;;;;;;14.90;100.00;100703.41;4896738;29;20040;-70
2023/09/19 00:11:03;;;;;;;10.30;2.35;;;;;;;14.85;100.00;100699.78;4896546;29;20519;-70
2023/09/19 00:13:30;;;;;;;5.05;2.03;;;;;;;14.82;100.00;100706.41;4896526;29;20480;-70
2023/09/19 00:15:58;;;;;;;11.77;3.33;;;;;;;14.77;100.00;100708.97;4896518;29;20495;-70
2023/09/19 00:18:28;;;;;;;10.00;3.22;;;;;;;14.76;100.00;100704.66;4896487;29;20036;-70
2023/09/19 00:20:57;;;;;;;9.02;2.58;;;;;;;14.80;100.00;100713.06;4896338;29;20040;-70
2023/09/19 00:23:24;;;;;;;9.35;1.92;;;;;;;14.77;100.00;100708.97;4896289;29;20092;-70
2023/09/19 00:25:50;;;;;;;14.65;2.53;;;;;;;14.77;100.00;100708.97;4896269;29;20040;-70
2023/09/19 00:28:16;;;;;;;8.98;3.08;;;;;;;14.74;100.00;100720.16;4896167;29;20047;-70
2023/09/19 00:30:49;;;;;;;7.70;2.00;;;;;;;14.73;100.00;100723.09;4895047;29;20029;-70
2023/09/19 00:33:16;;;;;;;11.88;2.65;;;;;;;14.69;100.00;100726.22;4895804;29;20028;-70
2023/09/19 00:35:52;;;;;;;5.43;2.05;;;;;;;14.67;100.00;100724.78;4879327;29;20111;-71
2023/09/19 00:38:21;;;;;;;6.18;1.98;;;;;;;14.65;100.00;100725.03;4896164;29;20032;-70
2023/09/19 00:40:51;;;;;;;9.90;2.65;;;;;;;14.64;100.00;100736.81;4896068;29;20079;-70
2023/09/19 00:43:16;;;;;;;10.40;3.00;;;;;;;14.64;100.00;100744.03;4896041;29;20520;-70
2023/09/19 00:45:48;;;;;;;6.97;2.05;;;;;;;14.61;100.00;100739.13;4895883;29;20127;-70
2023/09/19 00:48:14;;;;;;;4.90;2.45;;;;;;;14.58;100.00;100732.34;4894762;29;20085;-71
2023/09/19 00:50:42;;;;;;;13.73;2.13;;;;;;;14.60;100.00;100743.69;4894818;29;20472;-70
2023/09/19 00:53:13;;;;;;;14.85;3.47;;;;;;;14.57;100.00;100741.47;4895880;29;20440;-71
2023/09/19 00:55:38;;;;;;;13.32;2.05;;;;;;;14.57;100.00;100746.84;4895813;29;20037;-70
2023/09/19 00:58:06;;;;;;;6.13;1.92;;;;;;;14.55;100.00;100748.91;4894797;29;20389;-70
2023/09/19 01:00:33;;;;;;;9.38;1.77;;;;;;;14.55;100.00;100759.66;4895748;29;20032;-70
2023/09/19 01:03:01;;;;;;;8.05;2.10;;;;;;;14.47;100.00;100751.88;4878447;29;20041;-70
2023/09/19 01:05:26;;;;;;;10.52;3.70;;;;;;;14.44;100.00;100753.16;4895572;29;20064;-70
2023/09/19 01:07:53;;;;;;;8.48;2.95;;;;;;;14.50;100.00;100769.41;4895466;29;20908;-70
2023/09/19 01:10:20;;;;;;;6.88;2.65;;;;;;;14.49;100.00;100765.91;4895509;29;20033;-70
2023/09/19 01:13:21;;;;;;;6.28;1.77;;;;;;;14.47;100.00;100768.78;4895460;29;20204;-70
2023/09/19 01:16:11;;;;;;;6.60;1.80;;;;;;;14.45;100.00;100773.56;4895483;29;20032;-70
2023/09/19 01:18:55;;;;;;;8.38;2.47;;;;;;;14.44;100.00;100774.63;4895463;29;20445;-70
2023/09/19 01:21:34;;;;;;;8.70;2.47;;;;;;;14.41;100.00;100779.63;4895411;29;20146;-70
2023/09/19 01:24:27;;;;;;;8.48;2.33;;;;;;;14.38;100.00;100775.53;4895217;29;20503;-70
2023/09/19 01:27:44;;;;;;;11.82;3.75;;;;;;;14.37;100.00;100779.22;4895179;29;20032;-70
2023/09/19 01:30:22;;;;;;;9.40;2.60;;;;;;;14.33;100.00;100783.41;4819229;29;20144;-70
2023/09/19 01:32:52;;;;;;;8.27;2.25;;;;;;;14.29;100.00;100784.06;4893418;29;20033;-70
2023/09/19 01:35:18;;;;;;;12.52;3.00;;;;;;;14.23;100.00;100778.56;4895048;29;20036;-70
2023/09/19 01:37:44;;;;;;;5.43;1.60;;;;;;;14.23;100.00;100786.59;4895048;29;20158;-70
2023/09/19 01:40:18;;;;;;;7.78;2.25;;;;;;;14.24;100.00;100798.16;4894929;29;20528;-70
2023/09/19 01:43:18;;;;;;;9.02;2.08;;;;;;;14.25;100.00;100795.25;4894953;29;20056;-70
2023/09/19 01:46:03;;;;;;;10.50;2.03;;;;;;;14.21;100.00;100794.03;4881285;29;20044;-70
2023/09/19 01:48:49;;;;;;;12.90;1.88;;;;;;;14.19;100.00;100798.00;4894864;29;20043;-70
2023/09/19 01:51:27;;;;;;;9.48;2.47;;;;;;;14.14;100.00;100795.16;4894769;29;20396;-70
2023/09/19 01:54:11;;;;;;;7.90;2.05;;;;;;;14.14;100.00;100800.53;4894778;29;20031;-69
2023/09/19 01:56:57;;;;;;;9.13;2.88;;;;;;;14.11;100.00;100801.78;4894527;29;20051;-70
2023/09/19 01:59:31;;;;;;;4.63;2.13;;;;;;;14.07;100.00;100799.75;4894799;29;20036;-70
2023/09/19 02:01:58;;;;;;;12.85;2.33;;;;;;;14.03;100.00;100788.66;4894540;29;20040;-70
2023/09/19 02:04:23;;;;;;;10.52;1.73;;;;;;;14.05;100.00;100797.31;4892550;29;20120;-70
2023/09/19 02:06:49;;;;;;;10.88;1.77;;;;;;;14.03;100.00;100794.03;4894440;29;20052;-70
2023/09/19 02:09:15;;;;;;;8.80;2.95;;;;;;;14.01;100.00;100790.72;4894368;29;20036;-70
2023/09/19 02:11:41;;;;;;;10.38;3.40;;;;;;;14.01;100.00;100798.78;4894579;29;20043;-70
2023/09/19 02:14:08;;;;;;;9.57;2.00;;;;;;;13.95;100.00;100778.22;4893216;29;20051;-70
2023/09/19 02:16:34;;;;;;;3.33;1.27;;;;;;;13.99;100.00;100793.66;4894352;29;20031;-70
2023/09/19 02:19:00;;;;;;;9.20;1.60;;;;;;;13.96;100.00;100787.88;4894451;29;20067;-70
2023/09/19 02:21:29;;;;;;;9.77;2.45;;;;;;;13.95;100.00;100797.81;4894457;29;20037;-70
2023/09/19 02:23:55;;;;;;;9.05;2.35;;;;;;;13.97;100.00;100800.28;4894372;29;20033;-70
2023/09/19 02:26:20;;;;;;;10.00;2.83;;;;;;;13.94;100.00;100804.22;4894294;29;20045;-70
2023/09/19 02:28:46;;;;;;;9.70;2.90;;;;;;;13.93;100.00;100804.44;4877551;29;20444;-70
2023/09/19 02:31:11;;;;;;;10.27;2.20;;;;;;;13.90;100.00;100800.31;4894331;29;20032;-70
2023/09/19 02:33:37;;;;;;;12.27;2.63;;;;;;;13.89;100.00;100817.47;4894460;29;20111;-70
2023/09/19 02:36:06;;;;;;;14.95;4.15;;;;;;;13.89;100.00;100805.91;4894281;29;20506;-69
2023/09/19 02:38:31;;;;;;;18.83;2.22;;;;;;;13.87;100.00;100813.34;4894275;29;20119;-70
2023/09/19 02:40:56;;;;;;;6.25;2.33;;;;;;;13.89;100.00;100820.16;4894299;29;20495;-70
2023/09/19 02:43:22;;;;;;;6.32;1.55;;;;;;;13.87;100.00;100821.41;4894175;29;20045;-70
2023/09/19 02:45:56;;;;;;;8.85;1.98;;;;;;;13.85;100.00;100813.56;4894175;29;20051;-70
2023/09/19 02:48:22;;;;;;;11.95;2.10;;;;;;;13.78;100.00;100813.63;4894137;29;20033;-70
2023/09/19 02:50:51;;;;;;;8.32;2.78;;;;;;;13.75;100.00;100815.91;4877589;29;20044;-70
2023/09/19 02:53:16;;;;;;;12.60;2.67;;;;;;;13.73;100.00;100813.47;4894195;29;20052;-70
2023/09/19 02:55:42;;;;;;;12.07;1.90;;;;;;;13.70;100.00;100821.09;4893940;29;20064;-70
2023/09/19 02:58:08;;;;;;;9.52;1.80;;;;;;;13.73;100.00;100831.41;4893759;29;20073;-70
2023/09/19 03:00:35;;;;;;;11.30;2.85;;;;;;;13.71;100.00;100820.09;4894103;29;20052;-70
2023/09/19 03:03:02;;;;;;;13.50;1.67;;;;;;;13.69;100.00;100825.66;4893700;29;20056;-70
2023/09/19 03:05:30;;;;;;;11.70;3.33;;;;;;;13.69;100.00;100838.25;4894041;29;20052;-70
2023/09/19 03:07:56;;;;;;;11.25;1.75;;;;;;;13.68;100.00;100831.25;4894150;29;20075;-70
2023/09/19 03:10:21;;;;;;;17.25;4.72;;;;;;;13.65;100.00;100826.28;4893915;29;20068;-70
2023/09/19 03:12:47;;;;;;;7.82;1.95;;;;;;;13.61;100.00;100825.09;4894051;29;20041;-70
2023/09/19 03:15:15;;;;;;;6.15;2.03;;;;;;;13.61;100.00;100827.78;4893929;29;20025;-70
2023/09/19 03:17:44;;;;;;;6.95;2.13;;;;;;;13.57;100.00;100822.03;4893873;29;20115;-70
2023/09/19 03:20:12;;;;;;;5.60;1.60;;;;;;;13.59;100.00;100828.81;4893849;29;20044;-70
2023/09/19 03:22:39;;;;;;;7.13;2.15;;;;;;;13.58;100.00;100831.72;4896155;29;20028;-70
2023/09/19 03:25:07;;;;;;;5.43;1.90;;;;;;;13.55;100.00;100832.16;4897442;29;20092;-70
2023/09/19 03:27:34;;;;;;;7.68;1.67;;;;;;;13.55;100.00;100832.97;4897527;29;20032;-70
2023/09/19 03:30:00;;;;;;;7.63;2.10;;;;;;;13.53;100.00;100824.31;4897392;29;20086;-70
2023/09/19 03:32:25;;;;;;;6.32;2.35;;;;;;;13.54;100.00;100831.31;4897432;29;20079;-70
2023/09/19 03:34:50;;;;;;;8.57;2.05;;;;;;;13.55;100.00;100834.84;4897245;29;20021;-70
2023/09/19 03:37:17;;;;;;;5.50;2.65;;;;;;;13.50;100.00;100832.81;4897218;29;20033;-70
2023/09/19 03:39:42;;;;;;;7.63;2.22;;;;;;;13.46;100.00;100836.13;4897000;29;20033;-70
2023/09/19 03:42:08;;;;;;;4.10;1.50;;;;;;;13.50;100.00;100826.63;4897193;29;20104;-70
2023/09/19 03:44:33;;;;;;;6.75;2.35;;;;;;;13.46;100.00;100820.03;4896956;29;20036;-70
2023/09/19 03:46:58;;;;;;;5.70;1.77;;;;;;;13.46;100.00;100822.72;4897105;29;20123;-70
2023/09/19 03:49:24;;;;;;;7.85;1.83;;;;;;;13.44;100.00;100816.75;4897035;29;20062;-70
2023/09/19 03:51:49;;;;;;;4.78;1.48;;;;;;;13.44;100.00;100816.75;4897013;29;20103;-69
2023/09/19 03:54:16;;;;;;;5.72;2.17;;;;;;;13.44;100.00;100816.75;4897030;29;20120;-70
2023/09/19 03:56:43;;;;;;;8.93;2.00;;;;;;;13.43;100.00;100807.91;4896706;29;20048;-70
2023/09/19 03:59:09;;;;;;;3.42;1.20;;;;;;;13.42;100.00;100818.84;4897259;29;20519;-70
2023/09/19 04:01:35;;;;;;;6.22;1.92;;;;;;;13.43;100.00;100820.47;4895577;29;20041;-70
2023/09/19 04:04:08;;;;;;;5.22;1.33;;;;;;;13.44;100.00;100819.44;4896577;29;20500;-70
2023/09/19 04:06:35;;;;;;;4.18;1.75;;;;;;;13.43;100.00;100810.59;4896765;29;20043;-70
2023/09/19 04:09:01;;;;;;;8.15;2.67;;;;;;;13.38;100.00;100808.53;4896779;29;20045;-70
2023/09/19 04:11:26;;;;;;;9.63;2.15;;;;;;;13.43;100.00;100820.47;4896687;29;20519;-70
2023/09/19 04:13:51;;;;;;;8.57;2.13;;;;;;;13.44;100.00;100814.91;4895099;29;20041;-70
2023/09/19 04:16:17;;;;;;;10.75;3.03;;;;;;;13.40;100.00;100802.97;4896329;29;20033;-70
2023/09/19 04:18:43;;;;;;;17.52;3.67;;;;;;;13.41;100.00;100807.28;4896478;29;20036;-70
2023/09/19 04:21:08;;;;;;;6.85;1.58;;;;;;;13.40;100.00;100819.06;4896446;29;20043;-70
2023/09/19 04:23:34;;;;;;;10.57;3.65;;;;;;;13.43;100.00;100825.84;4879194;29;20054;-70
2023/09/19 04:26:00;;;;;;;10.77;2.50;;;;;;;13.42;100.00;100825.03;4879372;29;20096;-70
2023/09/19 04:28:27;;;;;;;5.35;2.55;;;;;;;13.41;100.00;100826.03;4895094;29;20606;-70
2023/09/19 04:30:53;;;;;;;13.50;2.20;;;;;;;13.46;100.00;100838.78;4879580;29;20027;-70
2023/09/19 04:33:18;;;;;;;5.88;1.65;;;;;;;13.47;100.00;100845.81;4896104;29;20020;-70
2023/09/19 04:35:44;;;;;;;3.80;1.95;;;;;;;13.46;100.00;100844.97;4896126;29;20071;-70
2023/09/19 04:38:09;;;;;;;13.82;2.95;;;;;;;13.50;100.00;100851.56;4896108;29;20032;-70
2023/09/19 04:40:35;;;;;;;8.88;2.53;;;;;;;13.52;100.00;100862.06;4896094;29;20087;-70
2023/09/19 04:43:00;;;;;;;6.43;2.17;;;;;;;13.52;100.00;100867.44;4895977;29;20044;-70
2023/09/19 04:45:27;;;;;;;6.20;1.73;;;;;;;13.51;100.00;100871.94;4895894;29;20032;-70
2023/09/19 04:47:53;;;;;;;6.63;1.83;;;;;;;13.50;100.00;100881.03;4895923;29;20123;-70
2023/09/19 04:50:21;;;;;;;8.32;2.05;;;;;;;13.55;100.00;100883.88;4895961;29;20068;-70
2023/09/19 04:52:50;;;;;;;8.38;1.45;;;;;;;13.58;100.00;100888.00;4895832;29;20035;-70
2023/09/19 04:55:17;;;;;;;9.50;1.92;;;;;;;13.58;100.00;100888.81;4895651;29;20017;-70
2023/09/19 04:57:50;;;;;;;11.15;1.63;;;;;;;13.58;100.00;100883.44;4878953;29;20100;-70
2023/09/19 05:00:19;;;;;;;9.60;1.80;;;;;;;13.55;100.00;100881.22;4895759;29;20115;-70
2023/09/19 05:02:45;;;;;;;13.35;1.63;;;;;;;13.63;100.00;100887.34;4895534;29;20034;-70
2023/09/19 05:05:11;;;;;;;6.22;1.77;;;;;;;13.60;100.00;100877.88;4895618;29;20043;-70
2023/09/19 05:07:39;;;;;;;11.73;4.32;;;;;;;13.64;100.00;100892.47;4895692;29;20056;-70
2023/09/19 05:10:07;;;;;;;8.20;2.33;;;;;;;13.62;100.00;100891.88;4895591;29;20035;-70
2023/09/19 05:12:37;;;;;;;7.90;2.70;;;;;;;13.62;100.00;100897.22;4895481;29;20108;-70
2023/09/19 05:15:09;;;;;;;7.03;1.50;;;;;;;13.62;100.00;100888.38;4895492;29;20096;-70
2023/09/19 05:17:35;;;;;;;5.68;1.80;;;;;;;13.61;100.00;100894.78;4894024;29;20088;-70
2023/09/19 05:20:15;;;;;;;10.73;3.20;;;;;;;13.60;100.00;100893.97;4878701;29;20047;-70
2023/09/19 05:22:41;;;;;;;7.88;2.30;;;;;;;13.62;100.00;100904.44;4894796;29;20033;-70
2023/09/19 05:25:07;;;;;;;9.82;3.75;;;;;;;13.61;100.00;100903.63;4894399;29;20119;-70
2023/09/19 05:27:33;;;;;;;10.32;2.20;;;;;;;13.59;100.00;100895.81;4894321;29;20066;-71
2023/09/19 05:29:59;;;;;;;7.00;1.40;;;;;;;13.60;100.00;100893.97;4894410;29;20043;-70
2023/09/19 05:32:24;;;;;;;3.38;1.40;;;;;;;13.61;100.00;100892.91;4894363;29;20036;-70
2023/09/19 05:34:53;;;;;;;9.30;2.80;;;;;;;13.63;100.00;100904.25;4894959;29;20496;-70
2023/09/19 05:37:19;;;;;;;7.63;1.67;;;;;;;13.61;100.00;100900.16;4878204;29;20071;-70
2023/09/19 05:39:44;;;;;;;9.02;1.88;;;;;;;13.62;100.00;100904.44;4894841;29;20064;-70
2023/09/19 05:42:09;;;;;;;11.13;1.98;;;;;;;13.64;100.00;100900.53;4894579;29;20172;-70
2023/09/19 05:44:35;;;;;;;10.60;3.03;;;;;;;13.64;100.00;100911.25;4893455;29;20087;-70
2023/09/19 05:47:04;;;;;;;8.35;2.70;;;;;;;13.57;100.00;100892.53;4893823;29;20063;-70
2023/09/19 05:49:30;;;;;;;8.68;3.25;;;;;;;13.66;100.00;100911.03;4894720;29;20065;-70
2023/09/19 05:51:58;;;;;;;8.68;1.75;;;;;;;13.67;100.00;100900.09;4894724;29;20032;-70
2023/09/19 05:54:24;;;;;;;6.30;1.63;;;;;;;13.68;100.00;100901.75;4894780;29;20092;-70
2023/09/19 05:56:52;;;;;;;7.50;2.38;;;;;;;13.69;100.00;100902.56;4894847;29;20060;-70
2023/09/19 05:59:17;;;;;;;5.00;1.98;;;;;;;13.66;100.00;100885.06;4894663;29;20128;-70
2023/09/19 06:01:43;;;;;;;13.05;1.90;;;;;;;13.71;100.00;100898.63;4893408;29;20115;-70
2023/09/19 06:04:08;;;;;;;8.15;2.25;;;;;;;13.72;100.00;100897.59;4877498;29;20056;-70
2023/09/19 06:06:39;;;;;;;12.38;2.53;;;;;;;13.75;100.00;100894.50;4894553;29;20045;-70
2023/09/19 06:09:08;;;;;;;8.02;2.60;;;;;;;13.79;100.00;100897.56;4894413;29;20044;-70
2023/09/19 06:11:34;;;;;;;7.18;1.85;;;;;;;13.79;100.00;100897.56;4894357;29;20032;-70
2023/09/19 06:14:02;;;;;;;13.50;2.88;;;;;;;13.80;100.00;100896.50;4894322;29;20036;-70
2023/09/19 06:16:28;;;;;;;9.25;3.28;;;;;;;13.87;100.00;100904.50;4877406;29;20373;-70
2023/09/19 06:18:55;;;;;;;8.70;1.95;;;;;;;13.88;100.00;100908.81;4894202;29;20381;-70
2023/09/19 06:21:21;;;;;;;9.02;2.00;;;;;;;13.89;100.00;100900.56;4894452;29;20055;-70
2023/09/19 06:23:47;;;;;;;8.60;1.80;;;;;;;13.88;100.00;100901.59;4894202;29;20071;-70
2023/09/19 06:26:13;;;;;;;7.13;2.17;;;;;;;13.85;100.00;100904.72;4877466;29;20068;-70
2023/09/19 06:28:38;;;;;;;9.52;2.10;;;;;;;13.93;100.00;100912.50;4894297;29;20028;-70
2023/09/19 06:31:07;;;;;;;18.67;2.97;;;;;;;13.93;100.00;100907.13;4895842;29;20036;-70
2023/09/19 06:33:33;;;;;;;11.57;1.98;;;;;;;13.97;100.00;100920.94;4863125;29;20057;-70
2023/09/19 06:36:00;;;;;;;11.35;2.40;;;;;;;14.01;100.00;100924.81;4894272;29;20036;-70
2023/09/19 06:38:25;;;;;;;8.38;2.80;;;;;;;14.01;100.00;100925.63;4892895;29;20318;-70
2023/09/19 06:40:51;;;;;;;8.75;2.83;;;;;;;14.01;100.00;100928.31;4894159;29;20052;-70
2023/09/19 06:43:16;;;;;;;8.15;2.75;;;;;;;14.06;100.00;100922.31;4894088;29;20035;-71
2023/09/19 06:45:42;;;;;;;9.93;3.25;;;;;;;14.06;100.00;100933.03;4894240;29;20564;-70
2023/09/19 06:48:09;;;;;;;7.47;1.52;;;;;;;14.13;100.00;100941.84;4894204;29;20044;-70
2023/09/19 06:50:35;;;;;;;7.30;1.52;;;;;;;14.11;100.00;100927.03;4894144;29;20056;-69
2023/09/19 06:53:02;;;;;;;8.68;2.35;;;;;;;14.18;100.00;100942.03;4888640;29;20115;-73
2023/09/19 06:55:30;;;;;;;9.20;3.42;;;;;;;14.18;100.00;100933.16;4887578;29;20044;-71
2023/09/19 06:57:56;;;;;;;12.52;1.88;;;;;;;14.15;100.00;100923.69;4889534;29;20044;-72
2023/09/19 07:00:22;;;;;;;12.15;2.13;;;;;;;14.26;100.00;100935.56;4890643;29;20036;-71
2023/09/19 07:03:03;;;;;;;9.13;1.58;;;;;;;14.31;100.00;100940.28;4890124;29;20044;-72
2023/09/19 07:05:33;;;;;;;16.00;2.45;;;;;;;14.31;100.00;100929.56;4873712;29;20035;-74
2023/09/19 07:08:01;;;;;;;9.43;1.85;;;;;;;14.33;100.00;100925.63;4890298;29;20035;-74
2023/09/19 07:10:28;;;;;;;9.45;3.08;;;;;;;14.35;100.00;100931.56;4888891;29;20471;-70
2023/09/19 07:13:11;;;;;;;13.63;2.83;;;;;;;14.35;100.00;100922.69;4888890;29;20090;-70
2023/09/19 07:15:41;;;;;;;5.70;1.58;;;;;;;14.36;100.00;100930.53;4889984;29;20037;-72
2023/09/19 07:18:08;;;;;;;7.05;1.42;;;;;;;14.37;100.00;100929.47;4889675;29;20032;-70
2023/09/19 07:20:34;;;;;;;9.80;2.00;;;;;;;14.37;100.00;100940.22;4889587;29;20038;-70
2023/09/19 07:23:00;;;;;;;6.18;2.30;;;;;;;14.45;100.00;100947.16;4872728;29;20048;-72
2023/09/19 07:25:27;;;;;;;10.45;2.38;;;;;;;14.42;100.00;100937.69;4889519;29;20079;-70
2023/09/19 07:27:54;;;;;;;15.95;3.05;;;;;;;14.48;100.00;100947.53;4889843;29;20043;-70
2023/09/19 07:30:20;;;;;;;7.97;1.85;;;;;;;14.55;100.00;100944.84;4890353;29;20059;-69
2023/09/19 07:32:45;;;;;;;7.55;1.50;;;;;;;14.61;100.00;100945.81;4890141;29;20056;-69
2023/09/19 07:35:12;;;;;;;11.10;3.88;;;;;;;14.62;100.00;100942.94;4890267;29;20031;-70
2023/09/19 07:37:37;;;;;;;13.70;3.38;;;;;;;14.64;100.00;100940.00;4889201;29;20033;-69
2023/09/19 07:40:07;;;;;;;6.18;3.05;;;;;;;14.66;100.00;100937.94;4889865;29;20039;-70
2023/09/19 07:42:38;;;;;;;13.05;2.67;;;;;;;14.70;100.00;100936.44;4889415;29;20159;-69
2023/09/19 07:45:04;;;;;;;;;;;;;;;14.82;100.00;100948.09;4888640;29;20051;-71
2023/09/19 07:47:30;;;;;;;11.30;1.67;;;;;;;14.86;100.00;100951.16;4889596;29;19927;-74
2023/09/19 07:49:56;;;;;;;9.13;2.00;;;;;;;14.94;100.00;100950.06;4888400;29;20115;-73
2023/09/19 07:52:22;;;;;;;7.10;2.40;;;;;;;15.01;100.00;100934.66;4889233;29;20091;-71
2023/09/19 07:54:49;;;;;;;13.57;3.50;;;;;;;15.05;100.00;100927.81;4889167;29;20472;-74
2023/09/19 07:57:15;;;;;;;13.68;3.53;;;;;;;15.11;100.00;100951.91;4872310;29;20049;-72
2023/09/19 07:59:42;;;;;;;14.38;3.50;;;;;;;15.20;100.00;100941.69;4886533;29;20029;-75
2023/09/19 08:02:15;;;;;;;6.88;2.20;;;;;;;15.24;100.00;100944.72;4888935;29;20036;-72
2023/09/19 08:04:46;;;;;;;10.25;2.28;;;;;;;15.36;100.00;100944.81;4888694;29;20219;-73
2023/09/19 08:07:13;;;;;;;16.08;2.97;;;;;;;15.50;100.00;100951.66;4888690;29;20040;-73
2023/09/19 08:09:38;;;;;;;9.93;1.73;;;;;;;15.59;100.00;100953.00;4888168;29;20503;-73
2023/09/19 08:12:04;;;;;;;5.22;1.58;;;;;;;15.65;100.00;100957.44;4871963;29;20041;-73
2023/09/19 08:14:30;;;;;;;6.70;1.50;;;;;;;15.67;100.00;100957.22;4889275;29;20464;-74
2023/09/19 08:16:59;;;;;;;11.40;3.08;;;;;;;15.78;100.00;100961.84;4872525;29;20064;-73
2023/09/19 08:19:28;;;;;;;5.85;1.80;;;;;;;15.75;100.00;100955.06;4889546;29;20033;-73
2023/09/19 08:21:58;;;;;;;6.70;2.50;;;;;;;15.75;100.00;100957.75;4888834;29;21158;-73
2023/09/19 08:24:24;;;;;;;9.00;3.05;;;;;;;15.81;100.00;100947.13;4888867;29;20440;-73
2023/09/19 08:26:51;;;;;;;13.30;2.63;;;;;;;15.87;100.00;100963.16;4889476;29;20040;-73
2023/09/19 08:29:17;;;;;;;4.30;1.73;;;;;;;15.85;100.00;100945.59;4889151;29;20064;-73
2023/09/19 08:31:43;;;;;;;9.20;1.80;;;;;;;15.90;100.00;100948.44;4888829;29;20032;-73
2023/09/19 08:34:08;;;;;;;9.30;2.45;;;;;;;15.98;100.00;100946.25;4888474;29;20028;-73
2023/09/19 08:36:35;;;;;;;14.95;2.45;;;;;;;15.99;100.00;100949.75;4871612;29;20040;-73
2023/09/19 08:39:00;;;;;;;13.07;3.05;;;;;;;16.09;100.00;100950.03;4888751;29;20115;-73
2023/09/19 08:41:26;;;;;;;10.20;1.75;;;;;;;16.21;100.00;100958.91;4872420;29;20120;-73
2023/09/19 08:43:51;;;;;;;13.00;3.72;;;;;;;16.24;100.00;100964.88;4888567;29;20061;-73
2023/09/19 08:46:19;;;;;;;13.55;2.28;;;;;;;16.28;100.00;100960.69;4888607;29;20040;-73
2023/09/19 08:49:02;;;;;;;14.05;3.17;;;;;;;16.21;100.00;100936.56;4888535;29;20119;-74
2023/09/19 08:51:39;;;;;;;8.98;3.50;;;;;;;16.21;100.00;100950.84;4888593;29;20040;-73
2023/09/19 08:54:05;;;;;;;10.40;2.17;;;;;;;16.24;100.00;100956.81;4888210;29;20103;-74
2023/09/19 08:56:32;;;;;;;10.68;2.53;;;;;;;16.32;100.00;100956.47;4888114;29;20052;-74
2023/09/19 08:59:02;;;;;;;4.03;2.03;;;;;;;16.41;100.00;100950.53;4887902;29;20084;-74
2023/09/19 09:01:28;;;;;;;4.10;1.30;;;;;;;16.59;100.00;100954.19;4888056;29;20039;-73
2023/09/19 09:03:55;;;;;;;8.23;2.53;;;;;;;16.72;100.00;100959.31;4887544;29;20148;-74
2023/09/19 09:06:21;;;;;;;12.55;2.28;;;;;;;16.69;100.00;100956.25;4887583;29;20029;-74
2023/09/19 09:08:50;;;;;;;6.78;1.92;;;;;;;16.66;100.00;100952.16;4886217;29;20042;-72
2023/09/19 09:11:17;;;;;;;6.30;2.00;;;;;;;16.70;100.00;100961.44;4887855;29;20108;-73
2023/09/19 09:13:44;;;;;;;10.52;2.72;;;;;;;16.77;100.00;100959.47;4887439;29;20484;-75
2023/09/19 09:16:10;;;;;;;12.82;2.97;;;;;;;16.80;100.00;100960.88;4888088;29;20028;-72
2023/09/19 09:18:37;;;;;;;12.35;2.90;;;;;;;16.93;100.00;100959.81;4887079;29;20032;-71
2023/09/19 09:21:04;;;;;;;11.98;2.13;;;;;;;16.97;100.00;100963.66;4870890;29;20384;-73
2023/09/19 09:23:31;;;;;;;7.15;2.50;;;;;;;16.95;100.00;100949.59;4887936;29;20081;-73
2023/09/19 09:25:59;;;;;;;7.93;2.47;;;;;;;17.11;100.00;100958.81;4888180;29;20036;-72
2023/09/19 09:28:27;;;;;;;7.40;2.22;;;;;;;17.19;100.00;100961.19;4889052;29;20055;-70
2023/09/19 09:30:54;;;;;;;8.80;2.47;;;;;;;17.26;100.00;100968.03;4888255;29;20572;-70
2023/09/19 09:33:19;;;;;;;17.08;4.80;;;;;;;17.40;100.00;100949.75;4870492;29;20040;-71
2023/09/19 09:35:56;;;;;;;10.00;3.40;;;;;;;17.48;100.00;100943.16;4887719;29;20029;-69
2023/09/19 09:38:33;;;;;;;11.02;2.55;;;;;;;17.62;99.15;100946.38;4887594;29;20028;-73
2023/09/19 09:43:34;;;;;;;9.48;2.80;;;;;;;17.62;100.00;100924.78;4887290;29;20457;-74
2023/09/19 09:46:58;;;;;;;9.23;1.85;;;;;;;17.61;98.22;100931.25;4887686;29;20024;-72
2023/09/19 09:49:14;;;;;;;9.57;1.67;;;;;;;17.56;96.95;100940.06;4887413;29;20128;-73
2023/09/19 09:51:42;;;;;;;11.65;1.83;;;;;;;17.60;96.80;100943.91;4855617;29;20029;-73
2023/09/19 09:54:12;;;;;;;10.68;2.50;;;;;;;17.66;95.33;100931.38;4887006;29;20029;-72
2023/09/19 09:57:13;;;;;;;11.32;2.90;;;;;;;17.67;96.89;100941.88;4887274;29;20088;-72
2023/09/19 09:59:50;;;;;;;7.55;1.90;;;;;;;17.83;95.43;100953.00;4887336;29;20072;-75
2023/09/19 10:02:29;;;;;;;7.63;2.00;;;;;;;17.90;96.54;100946.38;4886815;29;20862;-72
2023/09/19 10:05:43;;;;;;;14.40;3.95;;;;;;;17.99;95.33;100936.00;4886507;29;21069;-70
2023/09/19 10:08:08;;;;;;;19.17;4.22;;;;;;;18.18;93.01;100942.81;4872630;29;20033;-72
2023/09/19 10:13:21;;;;;;;14.48;2.03;;;;;;;18.47;95.41;100948.13;4887103;29;21393;-71
2023/09/19 10:15:52;;;;;;;13.88;3.25;;;;;;;18.53;92.95;100946.34;4887348;29;20040;-71
2023/09/19 10:18:25;;;;;;;13.32;2.20;;;;;;;18.54;88.33;100951.47;4870509;29;20033;-70
2023/09/19 10:20:51;;;;;;;10.82;2.38;;;;;;;18.45;87.45;100944.03;4887192;29;20086;-73
2023/09/19 10:23:22;;;;;;;11.23;3.03;;;;;;;18.32;89.39;100942.50;4886398;29;20134;-73
2023/09/19 10:25:48;;;;;;;13.13;2.58;;;;;;;18.30;91.53;100944.63;4869676;29;20135;-73
2023/09/19 10:28:16;;;;;;;8.00;2.60;;;;;;;18.22;88.65;100939.63;4893543;29;20028;-71
2023/09/19 10:30:50;;;;;;;6.95;2.08;;;;;;;18.34;91.06;100938.47;4892625;29;20139;-71
2023/09/19 10:33:20;;;;;;;14.95;2.20;;;;;;;18.44;92.72;100929.69;4894186;29;20088;-71
2023/09/19 10:35:48;;;;;;;17.27;2.80;;;;;;;18.59;88.83;100931.81;4894239;29;20424;-71
2023/09/19 10:38:19;;;;;;;8.93;2.30;;;;;;;18.56;90.11;100937.72;4894179;29;20510;-70
2023/09/19 10:40:48;;;;;;;7.85;2.63;;;;;;;18.55;88.57;100936.91;4894235;29;20040;-71
2023/09/19 10:43:18;;;;;;;8.02;2.58;;;;;;;18.62;88.39;100948.34;4876990;29;20064;-71
2023/09/19 10:45:46;;;;;;;7.82;2.70;;;;;;;18.59;88.70;100937.22;4894187;29;20041;-71
2023/09/19 10:48:12;;;;;;;8.15;2.42;;;;;;;18.60;89.25;100934.28;4894083;29;20185;-71
2023/09/19 10:50:46;;;;;;;9.10;2.67;;;;;;;18.74;88.97;100934.75;4894322;29;20037;-71
2023/09/19 10:53:13;;;;;;;9.15;3.20;;;;;;;18.82;87.19;100945.16;4894002;29;20468;-71
2023/09/19 10:55:40;;;;;;;10.52;1.95;;;;;;;18.91;85.29;100936.63;4877131;29;20033;-70
2023/09/19 10:58:14;;;;;;;7.15;2.58;;;;;;;18.92;83.24;100932.88;4893915;29;20071;-71
2023/09/19 11:01:12;;;;;;;15.52;3.13;;;;;;;18.91;85.62;100934.72;4893978;29;20041;-71
2023/09/19 11:03:43;;;;;;;9.25;1.98;;;;;;;18.96;86.25;100931.28;4892875;29;20124;-71
2023/09/19 11:06:16;;;;;;;9.43;1.95;;;;;;;19.02;85.29;100908.63;4892394;29;20037;-71
2023/09/19 11:11:43;;;;;;;3.78;1.88;;;;;;;19.07;84.61;100905.19;4893979;29;20032;-70
2023/09/19 11:14:23;;;;;;;7.15;1.80;;;;;;;19.10;84.37;100908.22;4893856;29;20029;-71
2023/09/19 11:17:07;;;;;;;7.13;1.92;;;;;;;19.13;85.55;100896.91;4892370;29;20488;-71
2023/09/19 11:22:54;;;;;;;3.72;1.33;;;;;;;19.18;83.13;100891.56;4894079;29;20040;-71
2023/09/19 11:25:33;;;;;;;4.50;2.08;;;;;;;19.19;82.53;100882.38;4893783;29;20043;-71
2023/09/19 11:28:08;;;;;;;42.47;7.07;;;;;;;19.22;86.67;100881.84;4893785;29;20104;-71
2023/09/19 11:30:39;;;;;;;8.55;1.88;;;;;;;19.30;83.31;100868.94;4892416;29;20033;-72
2023/09/19 11:33:28;;;;;;;21.92;3.90;;;;;;;19.42;83.55;100875.84;4893742;29;20587;-72
2023/09/19 11:36:18;;;;;;;7.00;2.15;;;;;;;19.63;84.61;100870.66;4892514;29;20036;-72
2023/09/19 11:38:49;;;;;;;46.40;7.80;;;;;;;19.74;82.78;100874.28;4893574;29;20036;-71